Time;durP1;ratioP1;P1;durP2;ratioP2;P2;SDS_P1;SDS_P2;PMS_P1;PMS_P2;Temp;Humidity;BMP_temperature;BMP_pressure;BME280_temperature;BME280_humidity;BME280_pressure;Samples;Min_cycle;Max_cycle;Signal;HPM_P1;HPM_P2
2023/04/03 00:01:38;;;;;;;3.58;0.85;;;3.40;99.90;;;;;;4982968;28;20054;-79
2023/04/03 00:04:05;;;;;;;1.52;0.82;;;3.40;99.90;;;;;;4961631;28;20371;-79
2023/04/03 00:06:31;;;;;;;3.53;0.90;;;3.40;99.90;;;;;;4984856;28;20065;-78
2023/04/03 00:08:57;;;;;;;2.40;0.90;;;3.30;99.90;;;;;;5000354;28;20122;-79
2023/04/03 00:11:22;;;;;;;1.90;1.00;;;4.00;99.90;;;;;;4990986;28;20117;-79
2023/04/03 00:13:48;;;;;;;2.87;1.03;;;3.30;99.90;;;;;;5000149;28;21010;-79
2023/04/03 00:16:14;;;;;;;2.15;1.00;;;4.30;99.90;;;;;;5004569;28;20046;-79
2023/04/03 00:18:40;;;;;;;1.58;0.80;;;3.40;99.90;;;;;;4974052;28;20483;-76
2023/04/03 00:21:06;;;;;;;4.15;0.90;;;3.30;99.90;;;;;;4970773;28;20438;-76
2023/04/03 00:23:32;;;;;;;;;;;3.10;99.90;;;;;;4989704;28;20517;-78
2023/04/03 00:25:58;;;;;;;1.52;0.77;;;3.10;99.90;;;;;;4999823;28;19918;-77
2023/04/03 00:28:23;;;;;;;2.97;1.10;;;3.70;99.90;;;;;;4982979;28;20097;-77
2023/04/03 00:30:50;;;;;;;2.97;0.88;;;3.00;99.90;;;;;;5001877;28;20853;-77
2023/04/03 00:33:16;;;;;;;3.08;0.98;;;3.00;99.90;;;;;;4981401;28;20160;-77
2023/04/03 00:35:42;;;;;;;2.20;1.00;;;3.00;99.90;;;;;;4982398;28;20034;-77
2023/04/03 00:38:08;;;;;;;2.30;1.02;;;2.90;99.90;;;;;;4989137;28;20048;-77
2023/04/03 00:40:37;;;;;;;3.17;1.27;;;2.90;99.90;;;;;;4985291;28;20030;-78
2023/04/03 00:43:13;;;;;;;2.55;0.90;;;2.90;99.90;;;;;;4981310;28;20041;-77
2023/04/03 00:45:42;;;;;;;2.00;0.90;;;2.90;99.90;;;;;;4994310;28;20522;-77
2023/04/03 00:48:12;;;;;;;1.42;0.88;;;2.80;99.90;;;;;;5006450;28;20104;-77
2023/04/03 00:50:41;;;;;;;3.20;0.85;;;2.80;99.90;;;;;;5003907;28;20068;-77
2023/04/03 00:53:11;;;;;;;2.05;0.85;;;2.80;99.90;;;;;;4987111;28;20351;-77
2023/04/03 00:55:38;;;;;;;4.05;1.25;;;2.70;99.90;;;;;;4982473;28;20038;-79
2023/04/03 00:58:06;;;;;;;6.63;1.05;;;3.10;99.90;;;;;;4987509;28;20056;-77
2023/04/03 01:00:33;;;;;;;1.55;0.93;;;2.00;99.90;;;;;;5001308;28;20049;-77
2023/04/03 01:03:00;;;;;;;1.55;1.00;;;2.70;99.90;;;;;;4980577;28;20096;-76
2023/04/03 01:05:26;;;;;;;3.40;0.88;;;2.70;99.90;;;;;;4997821;28;20048;-77
2023/04/03 01:07:52;;;;;;;2.95;1.20;;;3.00;99.90;;;;;;4986650;28;20482;-77
2023/04/03 01:10:20;;;;;;;2.88;0.90;;;2.60;99.90;;;;;;5001230;28;20034;-77
2023/04/03 01:12:48;;;;;;;5.07;1.30;;;2.60;99.90;;;;;;4992120;28;20491;-77
2023/04/03 01:15:23;;;;;;;3.45;1.15;;;2.60;99.90;;;;;;4983342;28;20049;-77
2023/04/03 01:17:53;;;;;;;5.55;1.30;;;2.50;99.90;;;;;;4989373;28;20038;-77
2023/04/03 01:20:27;;;;;;;1.88;0.90;;;2.70;99.90;;;;;;4979965;28;20095;-77
2023/04/03 01:23:07;;;;;;;3.72;1.00;;;2.50;99.90;;;;;;5003556;28;20470;-77
2023/04/03 01:25:36;;;;;;;2.10;1.00;;;2.40;99.90;;;;;;5001852;28;20046;-77
2023/04/03 01:28:02;;;;;;;6.40;1.23;;;2.40;99.90;;;;;;4989033;28;20033;-77
2023/04/03 01:30:33;;;;;;;2.67;0.80;;;2.40;99.90;;;;;;5001353;28;20421;-77
2023/04/03 01:32:59;;;;;;;2.22;1.23;;;2.30;99.90;;;;;;5003069;28;20040;-77
2023/04/03 01:35:25;;;;;;;4.10;0.90;;;2.30;99.90;;;;;;4978884;28;20029;-76
2023/04/03 01:37:50;;;;;;;3.33;1.00;;;4.00;99.90;;;;;;4994879;28;20038;-77
2023/04/03 01:40:17;;;;;;;3.50;1.20;;;2.30;99.90;;;;;;4977817;28;20487;-77
2023/04/03 01:42:42;;;;;;;;;;;2.30;99.90;;;;;;4979654;28;20273;-77
2023/04/03 01:45:09;;;;;;;4.25;1.02;;;2.20;99.90;;;;;;4986975;28;19979;-77
2023/04/03 01:47:35;;;;;;;2.67;1.02;;;2.20;99.90;;;;;;5001082;28;20483;-77
2023/04/03 01:50:00;;;;;;;3.50;1.42;;;2.20;99.90;;;;;;4988869;28;20053;-78
2023/04/03 01:52:26;;;;;;;3.28;1.08;;;3.50;99.90;;;;;;4986647;28;20061;-77
2023/04/03 01:54:52;;;;;;;2.38;1.30;;;2.10;99.90;;;;;;4986691;28;20042;-77
2023/04/03 01:57:18;;;;;;;3.65;1.00;;;2.10;99.90;;;;;;4984598;28;20100;-80
2023/04/03 01:59:43;;;;;;;3.13;1.53;;;3.10;99.90;;;;;;4986843;28;20071;-80
2023/04/03 02:02:09;;;;;;;3.67;1.52;;;2.00;99.90;;;;;;5003217;28;20073;-81
2023/04/03 02:04:35;;;;;;;2.75;1.10;;;2.00;99.90;;;;;;5000621;28;20478;-81
2023/04/03 02:07:00;;;;;;;2.50;1.08;;;1.90;99.90;;;;;;4984097;28;20047;-81
2023/04/03 02:09:26;;;;;;;2.83;1.50;;;2.00;99.90;;;;;;4983972;28;20057;-81
2023/04/03 02:11:52;;;;;;;3.20;1.10;;;2.50;99.90;;;;;;5002648;28;20505;-81
2023/04/03 02:14:18;;;;;;;3.60;1.20;;;1.90;99.90;;;;;;4976653;28;20049;-81
2023/04/03 02:16:44;;;;;;;4.23;1.50;;;1.80;99.90;;;;;;4962623;28;20034;-81
2023/04/03 02:19:10;;;;;;;3.97;1.35;;;1.90;99.90;;;;;;4997075;28;20176;-81
2023/04/03 02:21:35;;;;;;;2.75;1.17;;;1.80;99.90;;;;;;4985660;28;20041;-81
2023/04/03 02:24:01;;;;;;;4.40;1.40;;;1.90;99.90;;;;;;4997835;28;20038;-81
2023/04/03 02:26:27;;;;;;;5.03;1.30;;;3.10;99.90;;;;;;4997630;28;20364;-81
2023/04/03 02:28:52;;;;;;;4.10;1.40;;;1.70;99.90;;;;;;4999654;28;20042;-81
2023/04/03 02:31:18;;;;;;;6.90;1.52;;;1.70;99.90;;;;;;4984133;28;20046;-81
2023/04/03 02:33:44;;;;;;;3.55;1.15;;;1.70;99.90;;;;;;4995065;28;20411;-81
2023/04/03 02:36:10;;;;;;;2.55;1.08;;;1.70;99.90;;;;;;4972304;28;20063;-81
2023/04/03 02:38:36;;;;;;;5.97;1.50;;;1.60;99.90;;;;;;4987435;28;20045;-81
2023/04/03 02:41:05;;;;;;;3.53;1.52;;;1.60;99.90;;;;;;5001952;28;20085;-81
2023/04/03 02:43:30;;;;;;;5.57;1.33;;;1.60;99.90;;;;;;5002065;28;20042;-80
2023/04/03 02:45:56;;;;;;;2.75;1.30;;;1.60;99.90;;;;;;4980767;28;20052;-81
2023/04/03 02:48:22;;;;;;;5.18;1.50;;;1.60;99.90;;;;;;5001536;28;20062;-81
2023/04/03 02:50:49;;;;;;;2.55;1.50;;;1.60;99.90;;;;;;4999889;28;20121;-81
2023/04/03 02:53:15;;;;;;;3.55;1.50;;;1.50;99.90;;;;;;4984992;28;20108;-80
2023/04/03 02:55:41;;;;;;;2.75;1.20;;;1.70;99.90;;;;;;4978445;28;20097;-81
2023/04/03 02:58:06;;;;;;;4.20;2.05;;;1.50;99.90;;;;;;4997418;28;20398;-81
2023/04/03 03:00:33;;;;;;;2.97;1.48;;;1.50;99.90;;;;;;4985522;28;20030;-81
2023/04/03 03:02:59;;;;;;;;;;;1.50;99.90;;;;;;4988367;28;20120;-81
2023/04/03 03:05:26;;;;;;;2.53;1.42;;;1.50;99.90;;;;;;5004248;28;19984;-81
2023/04/03 03:07:51;;;;;;;3.83;1.30;;;1.40;99.90;;;;;;5004141;28;20753;-81
2023/04/03 03:10:17;;;;;;;6.57;1.42;;;2.40;99.90;;;;;;5001949;28;20080;-80
2023/04/03 03:12:43;;;;;;;4.13;1.42;;;1.40;99.90;;;;;;4986217;28;20475;-81
2023/04/03 03:15:09;;;;;;;3.33;1.30;;;1.70;99.90;;;;;;4998559;28;20049;-80
2023/04/03 03:17:36;;;;;;;4.40;1.30;;;1.40;99.90;;;;;;4999416;28;20047;-81
2023/04/03 03:20:03;;;;;;;2.97;1.38;;;1.30;99.90;;;;;;4994743;28;20046;-81
2023/04/03 03:22:29;;;;;;;2.53;1.23;;;2.20;99.90;;;;;;4983166;28;20038;-81
2023/04/03 03:24:55;;;;;;;3.95;1.52;;;1.30;99.90;;;;;;4975716;28;20521;-81
2023/04/03 03:27:20;;;;;;;8.20;1.63;;;1.20;99.90;;;;;;4983396;28;20046;-81
2023/04/03 03:29:46;;;;;;;4.53;1.40;;;2.60;99.90;;;;;;4994227;28;20038;-80
2023/04/03 03:32:12;;;;;;;6.10;1.80;;;1.20;99.90;;;;;;4975055;28;20041;-81
2023/04/03 03:34:38;;;;;;;7.75;1.92;;;1.20;99.90;;;;;;5004897;28;20038;-80
2023/04/03 03:37:04;;;;;;;5.13;1.50;;;1.20;99.90;;;;;;4995606;28;20088;-77
2023/04/03 03:39:30;;;;;;;3.78;1.40;;;2.60;99.90;;;;;;4984215;28;20096;-77
2023/04/03 03:41:55;;;;;;;6.25;1.95;;;1.10;99.90;;;;;;4979087;28;20042;-77
2023/04/03 03:44:21;;;;;;;4.38;1.52;;;1.10;99.90;;;;;;5002972;28;20538;-77
2023/04/03 03:46:47;;;;;;;4.43;2.10;;;1.10;99.90;;;;;;4988960;28;20458;-77
2023/04/03 03:49:13;;;;;;;6.15;2.10;;;2.10;99.90;;;;;;4984030;28;20052;-77
2023/04/03 03:51:40;;;;;;;8.52;3.05;;;1.00;99.90;;;;;;5002693;28;20116;-77
2023/04/03 03:54:06;;;;;;;6.47;2.22;;;1.00;99.90;;;;;;4982259;28;20434;-77
2023/04/03 03:56:32;;;;;;;6.00;2.13;;;1.00;99.90;;;;;;5006690;28;20042;-77
2023/04/03 03:58:58;;;;;;;7.50;2.97;;;1.00;99.90;;;;;;5005928;28;20092;-77
2023/04/03 04:01:24;;;;;;;4.95;1.80;;;1.10;99.90;;;;;;5000136;28;20773;-77
2023/04/03 04:03:50;;;;;;;5.20;2.13;;;1.00;99.90;;;;;;4988977;28;20041;-77
2023/04/03 04:06:16;;;;;;;4.47;1.90;;;1.80;99.90;;;;;;4997832;28;20034;-77
2023/04/03 04:08:42;;;;;;;6.72;1.95;;;0.80;99.90;;;;;;5004826;28;20025;-77
2023/04/03 04:11:09;;;;;;;6.07;2.00;;;0.70;99.90;;;;;;4969934;28;20494;-77
2023/04/03 04:13:34;;;;;;;;;;;0.80;99.90;;;;;;4979840;28;20447;-77
2023/04/03 04:16:00;;;;;;;5.35;2.17;;;0.80;99.90;;;;;;4989594;28;19963;-77
2023/04/03 04:18:26;;;;;;;6.55;2.03;;;0.70;99.90;;;;;;4968271;28;20039;-78
2023/04/03 04:20:51;;;;;;;7.20;2.63;;;0.40;99.90;;;;;;5002269;28;20115;-79
2023/04/03 04:23:18;;;;;;;5.22;2.45;;;0.70;99.90;;;;;;4985882;28;20301;-78
2023/04/03 04:25:48;;;;;;;3.60;1.92;;;2.30;99.90;;;;;;4972403;28;20061;-78
2023/04/03 04:28:15;;;;;;;9.63;2.10;;;0.70;99.90;;;;;;4999590;28;20132;-79
2023/04/03 04:30:41;;;;;;;6.43;1.95;;;0.80;99.90;;;;;;4985220;28;20926;-77
2023/04/03 04:33:07;;;;;;;8.15;2.38;;;1.20;99.90;;;;;;5000233;28;20035;-77
2023/04/03 04:35:33;;;;;;;5.50;2.38;;;0.70;99.90;;;;;;4987618;28;20042;-76
2023/04/03 04:37:59;;;;;;;6.47;2.53;;;0.70;99.90;;;;;;4985660;28;20041;-76
2023/04/03 04:40:26;;;;;;;10.10;2.63;;;1.40;99.90;;;;;;5001290;28;20102;-77
2023/04/03 04:42:51;;;;;;;;;;;0.60;99.90;;;;;;4980345;28;20042;-78
2023/04/03 04:45:17;;;;;;;5.38;2.00;;;2.10;99.90;;;;;;4968843;28;19987;-76
2023/04/03 04:47:43;;;;;;;6.40;2.25;;;2.00;99.90;;;;;;5005846;28;20173;-76
2023/04/03 04:50:10;;;;;;;6.32;1.85;;;0.60;99.90;;;;;;4964718;28;20134;-76
2023/04/03 04:52:35;;;;;;;;;;;0.60;99.90;;;;;;4998738;28;20034;-78
2023/04/03 04:55:01;;;;;;;6.03;2.17;;;0.90;99.90;;;;;;4999813;28;19917;-76
2023/04/03 04:57:27;;;;;;;5.25;2.20;;;0.50;99.90;;;;;;4999552;28;20426;-76
2023/04/03 04:59:52;;;;;;;5.93;2.03;;;0.50;99.90;;;;;;5002477;28;20114;-76
2023/04/03 05:02:18;;;;;;;4.80;2.30;;;0.50;99.90;;;;;;4998401;28;20050;-76
2023/04/03 05:04:44;;;;;;;7.30;2.08;;;0.50;99.90;;;;;;5000984;28;20053;-77
2023/04/03 05:07:10;;;;;;;4.03;2.10;;;0.40;99.90;;;;;;4982461;28;20117;-76
2023/04/03 05:09:36;;;;;;;6.63;1.90;;;1.50;99.90;;;;;;4979804;28;20125;-77
2023/04/03 05:12:02;;;;;;;5.15;2.30;;;0.50;99.90;;;;;;5003565;28;20038;-76
2023/04/03 05:14:28;;;;;;;8.35;2.17;;;0.40;99.90;;;;;;4970698;28;20037;-76
2023/04/03 05:16:54;;;;;;;5.90;1.70;;;1.60;99.90;;;;;;5006479;28;20121;-76
2023/04/03 05:19:21;;;;;;;8.23;2.35;;;0.40;99.90;;;;;;4989804;28;20128;-76
2023/04/03 05:21:47;;;;;;;7.43;2.22;;;1.60;99.90;;;;;;5006013;28;20046;-76
2023/04/03 05:24:13;;;;;;;8.35;2.58;;;0.40;99.90;;;;;;4993538;28;20087;-76
2023/04/03 05:26:39;;;;;;;14.57;2.90;;;0.30;99.90;;;;;;5006544;28;20084;-76
2023/04/03 05:29:05;;;;;;;7.22;2.58;;;0.40;99.90;;;;;;4998292;28;20038;-77
2023/04/03 05:31:30;;;;;;;6.03;2.35;;;0.40;99.90;;;;;;4999201;28;20108;-76
2023/04/03 05:33:57;;;;;;;7.83;2.33;;;0.40;99.90;;;;;;4986603;28;20050;-76
2023/04/03 05:36:22;;;;;;;4.35;2.33;;;0.40;99.90;;;;;;4985025;28;20293;-76
2023/04/03 05:38:49;;;;;;;5.68;2.92;;;0.50;99.90;;;;;;5007204;28;20053;-76
2023/04/03 05:41:16;;;;;;;5.47;2.55;;;1.60;99.90;;;;;;4995483;28;20105;-76
2023/04/03 05:43:42;;;;;;;5.95;2.05;;;0.50;99.90;;;;;;4995870;28;20078;-76
2023/04/03 05:46:12;;;;;;;7.65;2.38;;;0.50;99.90;;;;;;5000377;28;20045;-77
2023/04/03 05:48:38;;;;;;;6.25;2.63;;;0.60;99.90;;;;;;4997609;28;20069;-77
2023/04/03 05:51:05;;;;;;;4.97;2.28;;;0.60;99.90;;;;;;4986012;28;20050;-77
2023/04/03 05:53:35;;;;;;;5.68;2.45;;;0.60;99.90;;;;;;5003043;28;20096;-77
2023/04/03 05:56:01;;;;;;;9.32;2.35;;;0.70;99.90;;;;;;4995186;28;20046;-77
2023/04/03 05:58:26;;;;;;;4.32;2.17;;;1.90;99.90;;;;;;4996304;28;20042;-76
2023/04/03 06:00:52;;;;;;;7.60;2.13;;;0.90;99.90;;;;;;4983883;28;20034;-77
2023/04/03 06:03:18;;;;;;;5.82;2.42;;;0.90;99.90;;;;;;4981984;28;21209;-77
2023/04/03 06:05:44;;;;;;;7.60;2.20;;;1.00;99.90;;;;;;4983023;28;20133;-76
2023/04/03 06:08:10;;;;;;;3.33;1.90;;;1.10;99.90;;;;;;4985808;28;20372;-77
2023/04/03 06:10:36;;;;;;;7.47;2.65;;;1.90;99.90;;;;;;4999704;28;20447;-77
2023/04/03 06:13:02;;;;;;;6.18;2.20;;;1.20;99.90;;;;;;4983840;28;20038;-77
2023/04/03 06:15:28;;;;;;;9.32;2.05;;;1.20;99.90;;;;;;4985879;28;20446;-77
2023/04/03 06:17:53;;;;;;;6.75;2.10;;;2.30;99.90;;;;;;4987057;28;20052;-76
2023/04/03 06:20:19;;;;;;;5.80;1.83;;;1.50;99.90;;;;;;4982307;28;20371;-77
2023/04/03 06:22:45;;;;;;;7.20;2.00;;;1.50;99.90;;;;;;4983907;28;20049;-76
2023/04/03 06:25:12;;;;;;;5.75;2.10;;;1.60;99.90;;;;;;4996791;28;20121;-76
2023/04/03 06:27:38;;;;;;;4.55;2.25;;;1.70;99.90;;;;;;4983541;28;20074;-77
2023/04/03 06:30:06;;;;;;;5.30;2.13;;;1.80;99.90;;;;;;4999140;28;20041;-77
2023/04/03 06:32:32;;;;;;;6.25;1.98;;;2.00;99.90;;;;;;4999646;28;20042;-77
2023/04/03 06:34:58;;;;;;;8.35;1.98;;;3.00;99.90;;;;;;4999996;28;20042;-76
2023/04/03 06:37:28;;;;;;;6.20;2.13;;;2.80;99.90;;;;;;4976875;28;20057;-76
2023/04/03 06:39:54;;;;;;;5.22;2.13;;;2.30;99.90;;;;;;4997687;28;20394;-77
2023/04/03 06:42:20;;;;;;;11.23;2.25;;;2.40;99.90;;;;;;4997344;28;20050;-76
2023/04/03 06:44:47;;;;;;;7.78;2.38;;;2.50;99.90;;;;;;4981267;28;20044;-77
2023/04/03 06:47:17;;;;;;;4.65;1.70;;;2.70;99.90;;;;;;4999983;28;20053;-76
2023/04/03 06:49:43;;;;;;;3.83;1.73;;;2.80;99.90;;;;;;4987734;28;20061;-77
2023/04/03 06:52:09;;;;;;;5.55;2.13;;;3.80;99.90;;;;;;5001238;28;20042;-81
2023/04/03 06:54:35;;;;;;;3.85;2.13;;;3.00;99.90;;;;;;4999650;28;20041;-81
2023/04/03 06:57:01;;;;;;;5.88;2.63;;;3.20;99.90;;;;;;4999539;28;20045;-81
2023/04/03 06:59:27;;;;;;;4.40;2.00;;;3.40;99.90;;;;;;4996807;28;20401;-81
2023/04/03 07:01:53;;;;;;;7.90;2.13;;;3.60;99.90;;;;;;4974160;28;20103;-81
2023/04/03 07:04:22;;;;;;;5.00;1.90;;;3.50;99.90;;;;;;4982831;28;20482;-81
2023/04/03 07:06:48;;;;;;;5.03;1.90;;;3.60;99.90;;;;;;4987613;28;20034;-81
2023/04/03 07:09:14;;;;;;;4.73;1.77;;;4.90;99.90;;;;;;4998775;28;20540;-81
2023/04/03 07:11:43;;;;;;;;;;;4.80;99.90;;;;;;5003953;28;20277;-82
2023/04/03 07:14:09;;;;;;;3.83;1.58;;;6.10;99.90;;;;;;5003285;28;19921;-82
2023/04/03 07:16:35;;;;;;;3.80;1.80;;;5.50;99.90;;;;;;5008302;28;20049;-81
2023/04/03 07:19:01;;;;;;;7.63;2.00;;;5.90;99.90;;;;;;4987126;28;20360;-81
2023/04/03 07:21:27;;;;;;;4.35;1.92;;;6.60;99.90;;;;;;4987713;28;20505;-82
2023/04/03 07:23:54;;;;;;;3.53;1.58;;;6.70;99.90;;;;;;5003710;28;20039;-81
2023/04/03 07:26:20;;;;;;;4.45;1.98;;;7.00;99.90;;;;;;5003779;28;20530;-81
2023/04/03 07:28:48;;;;;;;5.00;1.80;;;7.20;99.90;;;;;;5002428;28;20038;-82
2023/04/03 07:31:15;;;;;;;4.72;1.50;;;7.20;99.90;;;;;;5002330;28;20418;-82
2023/04/03 07:33:41;;;;;;;4.43;2.00;;;7.50;99.90;;;;;;5004332;28;20042;-81
2023/04/03 07:36:07;;;;;;;3.92;2.00;;;7.90;99.90;;;;;;5002505;28;20038;-82
2023/04/03 07:38:35;;;;;;;5.22;1.83;;;8.00;99.90;;;;;;4986430;28;20045;-82
2023/04/03 07:41:01;;;;;;;5.03;1.58;;;8.20;99.90;;;;;;5003784;28;20038;-82
2023/04/03 07:43:26;;;;;;;5.18;1.45;;;8.30;99.90;;;;;;5002756;28;20421;-82
2023/04/03 07:45:53;;;;;;;4.15;1.40;;;8.30;99.90;;;;;;5003293;28;20040;-81
2023/04/03 07:48:21;;;;;;;4.68;1.40;;;8.40;99.90;;;;;;5000665;28;20058;-82
2023/04/03 07:50:47;;;;;;;6.32;1.52;;;8.60;99.90;;;;;;4985511;28;20033;-82
2023/04/03 07:53:14;;;;;;;3.60;1.10;;;8.60;99.90;;;;;;5007545;28;20064;-82
2023/04/03 07:55:42;;;;;;;4.55;1.38;;;8.90;99.90;;;;;;4986762;28;20052;-82
2023/04/03 07:58:14;;;;;;;3.67;1.10;;;9.10;99.90;;;;;;5003445;28;20054;-82
2023/04/03 08:00:40;;;;;;;4.15;1.35;;;9.00;99.90;;;;;;4986722;28;20034;-82
2023/04/03 08:03:07;;;;;;;3.80;1.15;;;9.10;99.90;;;;;;5002568;28;20041;-82
2023/04/03 08:05:37;;;;;;;3.05;1.10;;;9.10;99.90;;;;;;4999773;28;20046;-82
2023/04/03 08:08:04;;;;;;;2.42;0.98;;;9.20;99.90;;;;;;5000437;28;20034;-82
2023/04/03 08:10:30;;;;;;;2.92;0.80;;;9.40;99.90;;;;;;4999376;28;20068;-80
2023/04/03 08:12:56;;;;;;;3.17;1.08;;;9.80;99.90;;;;;;4984290;28;20038;-82
2023/04/03 08:15:22;;;;;;;5.45;1.10;;;9.90;99.90;;;;;;4969418;28;20169;-82
2023/04/03 08:17:48;;;;;;;2.83;1.10;;;9.70;99.90;;;;;;5002136;28;20034;-82
2023/04/03 08:20:14;;;;;;;3.22;0.80;;;9.90;99.90;;;;;;4988120;28;20057;-80
2023/04/03 08:22:40;;;;;;;4.93;1.15;;;10.00;99.90;;;;;;5000649;28;20049;-80
2023/04/03 08:25:06;;;;;;;3.22;1.15;;;10.00;99.90;;;;;;4986529;28;20100;-80
2023/04/03 08:27:32;;;;;;;1.90;0.70;;;10.10;99.40;;;;;;5002636;28;20139;-80
2023/04/03 08:29:58;;;;;;;4.03;1.13;;;10.20;99.40;;;;;;5000064;28;20073;-81
2023/04/03 08:32:24;;;;;;;2.50;0.98;;;10.50;99.90;;;;;;4986253;28;20031;-81
2023/04/03 08:34:50;;;;;;;3.63;1.02;;;10.70;98.30;;;;;;5003378;28;20042;-81
2023/04/03 08:37:16;;;;;;;3.33;0.90;;;10.70;98.50;;;;;;5003880;28;20506;-81
2023/04/03 08:39:43;;;;;;;2.88;1.10;;;11.10;98.90;;;;;;4988553;28;20042;-81
2023/04/03 08:42:36;;;;;;;4.53;0.90;;;10.70;97.10;;;;;;4997910;28;20058;-81
2023/04/03 08:45:14;;;;;;;2.65;0.90;;;11.10;97.10;;;;;;5001853;28;20053;-81
2023/04/03 08:47:53;;;;;;;5.10;1.00;;;11.30;97.80;;;;;;5001944;28;20387;-81
2023/04/03 08:50:23;;;;;;;3.47;1.20;;;11.80;97.40;;;;;;5003349;28;20107;-81
2023/04/03 08:52:52;;;;;;;6.63;1.10;;;11.80;96.90;;;;;;4985774;28;20096;-81
2023/04/03 08:55:24;;;;;;;4.80;0.90;;;11.90;95.50;;;;;;5000170;28;20053;-81
2023/04/03 08:58:04;;;;;;;3.38;1.08;;;12.00;95.90;;;;;;5002430;28;20050;-82
2023/04/03 09:01:07;;;;;;;4.78;1.02;;;11.70;95.10;;;;;;4982523;28;20048;-81
2023/04/03 09:03:38;;;;;;;2.30;0.70;;;12.30;95.40;;;;;;4985166;28;20040;-81
2023/04/03 09:06:18;;;;;;;2.50;0.90;;;12.10;95.60;;;;;;4999914;28;20510;-81
2023/04/03 09:08:53;;;;;;;2.17;0.95;;;12.40;96.00;;;;;;5002021;28;20073;-81
2023/04/03 09:11:27;;;;;;;3.50;1.17;;;12.80;94.80;;;;;;5001684;28;20045;-81
2023/04/03 09:14:35;;;;;;;3.63;0.80;;;12.90;95.00;;;;;;5000368;28;20092;-81
2023/04/03 09:17:43;;;;;;;4.57;1.02;;;12.90;94.60;;;;;;4929011;29;21757;-81
2023/04/03 09:20:27;;;;;;;5.22;1.33;;;12.90;94.30;;;;;;5001262;28;20057;-81
2023/04/03 09:22:54;;;;;;;3.70;1.00;;;12.80;95.10;;;;;;5003879;28;20046;-81
2023/04/03 09:25:32;;;;;;;4.35;0.90;;;13.40;93.50;;;;;;5000946;28;20101;-81
2023/04/03 09:28:01;;;;;;;2.17;0.80;;;13.00;94.00;;;;;;4982961;28;20050;-81
2023/04/03 09:30:27;;;;;;;3.30;0.93;;;13.20;94.30;;;;;;4984681;28;20042;-81
2023/04/03 09:32:55;;;;;;;2.85;0.80;;;13.50;92.90;;;;;;5001960;28;20137;-81
2023/04/03 09:35:30;;;;;;;1.67;0.70;;;13.60;92.70;;;;;;5001354;28;20402;-81
2023/04/03 09:38:14;;;;;;;2.95;1.00;;;13.60;90.90;;;;;;5001561;28;20046;-81
2023/04/03 09:40:46;;;;;;;3.15;0.80;;;13.60;92.20;;;;;;5003511;28;20133;-81
2023/04/03 09:43:24;;;;;;;2.45;0.60;;;13.90;92.40;;;;;;4985942;28;20526;-81
2023/04/03 09:45:51;;;;;;;3.83;1.00;;;14.20;90.80;;;;;;4998182;28;20046;-81
2023/04/03 09:48:20;;;;;;;3.83;1.00;;;14.40;90.00;;;;;;5000885;28;20057;-81
2023/04/03 09:50:59;;;;;;;3.35;0.95;;;14.20;90.90;;;;;;5001563;28;20042;-81
2023/04/03 09:53:35;;;;;;;2.55;0.82;;;13.50;90.90;;;;;;4998421;28;20039;-81
2023/04/03 09:56:15;;;;;;;3.28;0.60;;;13.70;91.00;;;;;;5001370;28;20085;-81
2023/04/03 09:58:48;;;;;;;3.30;0.70;;;13.70;90.50;;;;;;5000281;28;20037;-81
2023/04/03 10:01:28;;;;;;;2.60;0.50;;;13.90;90.30;;;;;;4998199;28;20033;-81
2023/04/03 10:04:11;;;;;;;2.38;0.60;;;14.10;88.80;;;;;;4999450;28;20046;-81
2023/04/03 10:06:46;;;;;;;2.67;0.85;;;14.40;88.30;;;;;;4998216;28;20422;-81
2023/04/03 10:09:30;;;;;;;1.75;0.70;;;14.40;88.90;;;;;;4999119;28;20033;-80
2023/04/03 10:12:04;;;;;;;1.50;0.63;;;14.90;89.20;;;;;;4984275;28;20030;-81
2023/04/03 10:14:32;;;;;;;2.83;0.75;;;14.60;87.10;;;;;;5001575;28;20081;-81
2023/04/03 10:17:21;;;;;;;2.63;0.73;;;15.00;87.00;;;;;;4969029;28;20176;-81
2023/04/03 10:20:02;;;;;;;3.33;1.00;;;15.00;83.70;;;;;;4990823;28;20046;-81
2023/04/03 10:23:09;;;;;;;3.92;0.73;;;15.50;83.00;;;;;;4998528;28;20053;-80
2023/04/03 10:25:40;;;;;;;2.92;0.60;;;15.30;84.40;;;;;;4917175;29;20121;-81
2023/04/03 10:28:29;;;;;;;1.30;0.50;;;15.40;86.10;;;;;;4928756;29;20071;-81
2023/04/03 10:31:11;;;;;;;3.03;1.05;;;15.00;81.90;;;;;;4975217;28;20124;-80
2023/04/03 10:34:12;;;;;;;1.55;0.40;;;15.00;83.00;;;;;;4983632;28;20422;-80
2023/04/03 10:36:40;;;;;;;1.52;0.60;;;15.30;83.50;;;;;;4999537;28;20049;-81
2023/04/03 10:39:44;;;;;;;2.78;0.60;;;16.30;79.00;;;;;;4999509;28;20034;-81
2023/04/03 10:42:41;;;;;;;2.03;0.60;;;16.00;78.20;;;;;;4987858;28;20054;-80
2023/04/03 10:45:19;;;;;;;2.05;0.50;;;15.70;77.80;;;;;;4999878;28;20046;-81
2023/04/03 10:48:11;;;;;;;2.05;0.57;;;16.00;79.70;;;;;;4985312;28;20033;-81
2023/04/03 10:50:47;;;;;;;2.28;0.50;;;16.20;79.20;;;;;;5001126;28;20069;-81
2023/04/03 10:53:34;;;;;;;0.95;0.40;;;16.10;78.00;;;;;;5002754;28;20096;-81
2023/04/03 10:56:44;;;;;;;1.52;0.32;;;16.20;77.10;;;;;;4999590;28;20060;-81
2023/04/03 10:59:19;;;;;;;1.63;0.43;;;15.80;77.40;;;;;;4947469;28;20045;-81
2023/04/03 11:01:52;;;;;;;1.30;0.45;;;16.20;77.70;;;;;;5002210;28;20521;-81
2023/04/03 11:04:20;;;;;;;1.23;0.52;;;16.30;76.50;;;;;;4999377;28;20073;-81
2023/04/03 11:07:11;;;;;;;1.42;0.57;;;16.40;78.20;;;;;;4999094;28;20031;-81
2023/04/03 11:09:45;;;;;;;2.08;0.50;;;16.20;76.90;;;;;;5001785;28;20462;-81
2023/04/03 11:12:21;;;;;;;1.33;0.60;;;16.20;78.20;;;;;;4999174;28;20483;-81
2023/04/03 11:14:50;;;;;;;1.10;0.40;;;16.60;76.90;;;;;;4995910;28;20061;-81
2023/04/03 11:17:19;;;;;;;3.75;0.60;;;16.40;78.30;;;;;;5000594;28;20099;-81
2023/04/03 11:20:06;;;;;;;1.42;0.40;;;16.80;78.20;;;;;;4999887;28;20376;-81
2023/04/03 11:22:37;;;;;;;1.10;0.40;;;16.50;75.70;;;;;;5000924;28;20097;-81
2023/04/03 11:25:10;;;;;;;1.30;0.50;;;17.00;76.80;;;;;;5002001;28;20049;-81
2023/04/03 11:27:44;;;;;;;1.33;0.60;;;17.20;75.00;;;;;;4982883;28;20049;-80
2023/04/03 11:30:19;;;;;;;2.72;0.52;;;17.00;77.10;;;;;;4996980;28;20123;-81
2023/04/03 11:33:13;;;;;;;2.50;0.60;;;17.30;75.20;;;;;;4999231;28;20403;-80
2023/04/03 11:35:44;;;;;;;2.45;0.70;;;17.50;75.00;;;;;;4982585;28;20042;-80
2023/04/03 11:38:18;;;;;;;1.33;0.50;;;18.00;74.60;;;;;;5000300;28;20410;-80
2023/04/03 11:40:45;;;;;;;1.90;0.60;;;17.80;75.60;;;;;;4997421;28;20042;-80
2023/04/03 11:43:29;;;;;;;2.40;0.50;;;17.20;74.30;;;;;;5002094;28;20041;-80
2023/04/03 11:45:59;;;;;;;1.83;0.47;;;17.70;75.80;;;;;;5000091;28;20034;-80
2023/04/03 11:48:33;;;;;;;1.52;0.50;;;18.30;73.60;;;;;;5001813;28;20068;-80
2023/04/03 11:51:01;;;;;;;1.52;0.40;;;18.00;74.50;;;;;;4983222;28;20386;-80
2023/04/03 11:53:40;;;;;;;1.55;0.50;;;17.60;72.90;;;;;;4990515;28;20037;-80
2023/04/03 11:56:27;;;;;;;1.83;0.50;;;17.50;74.70;;;;;;4988933;28;20065;-80
2023/04/03 11:59:04;;;;;;;1.33;0.40;;;17.10;73.90;;;;;;4988297;28;20121;-80
2023/04/03 12:01:43;;;;;;;1.92;0.60;;;16.80;72.20;;;;;;5003007;28;20498;-79
2023/04/03 12:04:14;;;;;;;2.35;0.40;;;16.70;74.00;;;;;;4987286;28;20057;-79
2023/04/03 12:06:40;;;;;;;1.52;0.40;;;16.80;74.40;;;;;;5005127;28;20045;-79
2023/04/03 12:09:28;;;;;;;1.35;0.47;;;17.30;73.00;;;;;;5000396;28;20089;-79
2023/04/03 12:11:56;;;;;;;1.80;0.40;;;18.20;73.10;;;;;;5004873;28;20066;-80
2023/04/03 12:14:25;;;;;;;1.95;0.45;;;18.40;76.20;;;;;;5002591;28;20046;-79
2023/04/03 12:16:53;;;;;;;1.23;0.45;;;17.60;73.30;;;;;;5001542;28;20038;-79
2023/04/03 12:19:43;;;;;;;1.98;0.40;;;17.60;73.80;;;;;;4988991;28;20474;-79
2023/04/03 12:22:15;;;;;;;1.58;0.50;;;17.00;73.80;;;;;;5000836;28;20141;-79
2023/04/03 12:24:48;;;;;;;1.10;0.40;;;17.00;74.20;;;;;;4983422;28;20045;-79
2023/04/03 12:27:25;;;;;;;1.90;0.60;;;16.20;74.20;;;;;;5004726;28;20069;-79
2023/04/03 12:30:03;;;;;;;1.25;0.50;;;16.40;76.60;;;;;;4985529;28;20111;-79
2023/04/03 12:32:47;;;;;;;2.75;0.68;;;16.40;74.50;;;;;;4999724;28;20112;-79
2023/04/03 12:35:43;;;;;;;1.30;0.43;;;17.10;74.50;;;;;;4986031;28;20038;-79
2023/04/03 12:38:25;;;;;;;2.95;0.65;;;16.90;74.60;;;;;;4985801;28;20050;-79
2023/04/03 12:40:56;;;;;;;1.45;0.93;;;17.50;73.90;;;;;;4999231;28;20520;-78
2023/04/03 12:44:00;;;;;;;1.60;0.60;;;17.50;74.10;;;;;;4985447;28;20120;-79
2023/04/03 12:46:47;;;;;;;2.00;0.60;;;17.20;72.60;;;;;;5002883;28;20035;-78
2023/04/03 12:49:31;;;;;;;1.27;0.40;;;16.60;73.90;;;;;;4999155;28;20046;-79
2023/04/03 12:51:57;;;;;;;1.70;0.35;;;17.00;74.50;;;;;;5001403;28;20069;-79
2023/04/03 12:54:32;;;;;;;1.65;0.55;;;16.60;74.50;;;;;;5003021;28;20072;-79
2023/04/03 12:57:17;;;;;;;1.85;0.50;;;16.70;74.30;;;;;;4999280;28;20053;-79
2023/04/03 12:59:46;;;;;;;1.05;0.50;;;16.60;75.20;;;;;;5002089;28;20061;-79
2023/04/03 13:02:17;;;;;;;1.80;0.40;;;16.50;72.90;;;;;;4997921;28;20100;-78
2023/04/03 13:04:45;;;;;;;1.90;0.50;;;16.20;73.90;;;;;;5002794;28;20046;-78
2023/04/03 13:07:33;;;;;;;1.95;0.70;;;16.30;75.00;;;;;;5003228;28;20506;-78
2023/04/03 13:10:07;;;;;;;;;;;16.20;74.80;;;;;;4983406;28;20117;-78
2023/04/03 13:12:50;;;;;;;2.00;0.80;;;16.30;73.70;;;;;;5001419;28;19996;-78